KTBN/TBN METAR and TAF weather

Enter ICAO airport designator
Station Type Date Time Source
KTBN METAR 2022/06/28 14:56 UTC NOAA

KTBN 281456Z AUTO 14006KT 10SM CLR 23/10 A3030 RMK AO2 SLP255 T02310098 50002 $


Station Type Date Time Source
KTBN Decoded METAR 2022/06/28 14:56 UTC NOAA

Fort Leonard Wood, MO, United States (KTBN) 37-44N 092-08W
Jun 28, 2022 - 10:56 AM EDT / 2022.06.28 1456 UTC
Wind: from the SE (140 degrees) at 7 MPH (6 KT):0
Visibility: 10 mile(s):0
Sky conditions: clear
Temperature: 73.6 F (23.1 C)
Dew Point: 49.6 F (9.8 C)
Relative Humidity: 42%
Pressure (altimeter): 30.3 in. Hg (1026 hPa)
Pressure tendency: 0.01 inches (0.2 hPa) higher than three hours ago
ob: KTBN 281456Z AUTO 14006KT 10SM CLR 23/10 A3030 RMK AO2 SLP255 T02310098 50002
cycle: 15

Station Type Date Time Source
KTBN TAF UTC NOAA

Error!

Example: see airport list